sensor_id;sensor_type;location;lat;lon;timestamp;P1;durP1;ratioP1;P2;durP2;ratioP2
13343;SDS011;6741;48.964;9.406;2023-07-28T00:02:01;6.57;;;5.95;;
13343;SDS011;6741;48.964;9.406;2023-07-28T00:04:30;8.43;;;6.45;;
13343;SDS011;6741;48.964;9.406;2023-07-28T00:06:57;7.82;;;6.45;;
13343;SDS011;6741;48.964;9.406;2023-07-28T00:09:24;8.18;;;6.25;;
13343;SDS011;6741;48.964;9.406;2023-07-28T00:11:51;7.20;;;6.50;;
13343;SDS011;6741;48.964;9.406;2023-07-28T00:14:18;6.60;;;5.90;;
13343;SDS011;6741;48.964;9.406;2023-07-28T00:16:45;8.18;;;6.43;;
13343;SDS011;6741;48.964;9.406;2023-07-28T00:19:12;7.28;;;6.63;;
13343;SDS011;6741;48.964;9.406;2023-07-28T00:21:40;8.00;;;6.47;;
13343;SDS011;6741;48.964;9.406;2023-07-28T00:24:07;6.68;;;6.07;;
13343;SDS011;6741;48.964;9.406;2023-07-28T00:26:33;6.43;;;5.82;;
13343;SDS011;6741;48.964;9.406;2023-07-28T00:29:00;6.22;;;5.72;;
13343;SDS011;6741;48.964;9.406;2023-07-28T00:31:30;5.53;;;4.97;;
13343;SDS011;6741;48.964;9.406;2023-07-28T00:33:57;6.57;;;5.35;;
13343;SDS011;6741;48.964;9.406;2023-07-28T00:36:23;6.32;;;5.78;;
13343;SDS011;6741;48.964;9.406;2023-07-28T00:38:52;6.03;;;5.43;;
13343;SDS011;6741;48.964;9.406;2023-07-28T00:41:18;6.32;;;5.82;;
13343;SDS011;6741;48.964;9.406;2023-07-28T00:43:45;6.50;;;5.95;;
13343;SDS011;6741;48.964;9.406;2023-07-28T00:46:12;6.70;;;6.00;;
13343;SDS011;6741;48.964;9.406;2023-07-28T00:48:40;6.82;;;6.03;;
13343;SDS011;6741;48.964;9.406;2023-07-28T00:51:07;6.85;;;5.88;;
13343;SDS011;6741;48.964;9.406;2023-07-28T00:53:36;9.68;;;5.70;;
13343;SDS011;6741;48.964;9.406;2023-07-28T00:56:05;7.05;;;5.80;;
13343;SDS011;6741;48.964;9.406;2023-07-28T00:58:33;7.43;;;6.63;;
13343;SDS011;6741;48.964;9.406;2023-07-28T01:01:00;6.50;;;6.00;;
13343;SDS011;6741;48.964;9.406;2023-07-28T01:03:28;7.82;;;6.43;;
13343;SDS011;6741;48.964;9.406;2023-07-28T01:05:57;7.25;;;6.43;;
13343;SDS011;6741;48.964;9.406;2023-07-28T01:08:34;6.95;;;6.35;;
13343;SDS011;6741;48.964;9.406;2023-07-28T01:11:08;6.35;;;5.85;;
13343;SDS011;6741;48.964;9.406;2023-07-28T01:13:35;6.00;;;5.50;;
13343;SDS011;6741;48.964;9.406;2023-07-28T01:16:02;6.47;;;5.50;;
13343;SDS011;6741;48.964;9.406;2023-07-28T01:18:29;7.25;;;6.10;;
13343;SDS011;6741;48.964;9.406;2023-07-28T01:20:56;6.20;;;5.70;;
13343;SDS011;6741;48.964;9.406;2023-07-28T01:23:29;6.25;;;5.75;;
13343;SDS011;6741;48.964;9.406;2023-07-28T01:26:08;6.57;;;5.82;;
13343;SDS011;6741;48.964;9.406;2023-07-28T01:28:38;6.70;;;6.03;;
13343;SDS011;6741;48.964;9.406;2023-07-28T01:31:06;6.25;;;5.75;;
13343;SDS011;6741;48.964;9.406;2023-07-28T01:33:34;6.95;;;5.68;;
13343;SDS011;6741;48.964;9.406;2023-07-28T01:36:01;6.88;;;6.15;;
13343;SDS011;6741;48.964;9.406;2023-07-28T01:38:29;6.53;;;5.35;;
13343;SDS011;6741;48.964;9.406;2023-07-28T01:40:56;6.25;;;5.63;;
13343;SDS011;6741;48.964;9.406;2023-07-28T01:43:22;6.20;;;5.68;;
13343;SDS011;6741;48.964;9.406;2023-07-28T01:45:51;7.38;;;5.60;;
13343;SDS011;6741;48.964;9.406;2023-07-28T01:48:17;6.90;;;5.65;;
13343;SDS011;6741;48.964;9.406;2023-07-28T01:50:44;5.57;;;5.15;;
13343;SDS011;6741;48.964;9.406;2023-07-28T01:53:11;6.97;;;5.53;;
13343;SDS011;6741;48.964;9.406;2023-07-28T01:55:38;5.50;;;5.00;;
13343;SDS011;6741;48.964;9.406;2023-07-28T01:58:05;6.50;;;5.88;;
13343;SDS011;6741;48.964;9.406;2023-07-28T02:00:31;6.05;;;5.45;;
13343;SDS011;6741;48.964;9.406;2023-07-28T02:03:00;6.40;;;5.80;;
13343;SDS011;6741;48.964;9.406;2023-07-28T02:05:28;6.25;;;5.65;;
13343;SDS011;6741;48.964;9.406;2023-07-28T02:07:55;6.25;;;5.75;;
13343;SDS011;6741;48.964;9.406;2023-07-28T02:10:22;6.18;;;5.60;;
13343;SDS011;6741;48.964;9.406;2023-07-28T02:12:49;6.00;;;5.50;;
13343;SDS011;6741;48.964;9.406;2023-07-28T02:15:17;6.10;;;5.60;;
13343;SDS011;6741;48.964;9.406;2023-07-28T02:17:44;6.57;;;5.97;;
13343;SDS011;6741;48.964;9.406;2023-07-28T02:20:12;6.13;;;5.63;;
13343;SDS011;6741;48.964;9.406;2023-07-28T02:22:40;6.60;;;5.97;;
13343;SDS011;6741;48.964;9.406;2023-07-28T02:25:08;9.07;;;6.18;;
13343;SDS011;6741;48.964;9.406;2023-07-28T02:27:36;6.20;;;5.60;;
13343;SDS011;6741;48.964;9.406;2023-07-28T02:30:03;6.72;;;5.97;;
13343;SDS011;6741;48.964;9.406;2023-07-28T02:32:31;6.70;;;6.10;;
13343;SDS011;6741;48.964;9.406;2023-07-28T02:34:58;6.15;;;5.55;;
13343;SDS011;6741;48.964;9.406;2023-07-28T02:37:26;6.70;;;6.10;;
13343;SDS011;6741;48.964;9.406;2023-07-28T02:39:53;5.80;;;5.30;;
13343;SDS011;6741;48.964;9.406;2023-07-28T02:42:20;6.43;;;5.88;;
13343;SDS011;6741;48.964;9.406;2023-07-28T02:44:48;6.68;;;6.13;;
13343;SDS011;6741;48.964;9.406;2023-07-28T02:47:15;7.53;;;6.40;;
13343;SDS011;6741;48.964;9.406;2023-07-28T02:49:42;6.63;;;5.88;;
13343;SDS011;6741;48.964;9.406;2023-07-28T02:52:09;7.20;;;5.65;;
13343;SDS011;6741;48.964;9.406;2023-07-28T02:54:37;6.20;;;5.55;;
13343;SDS011;6741;48.964;9.406;2023-07-28T02:57:04;6.93;;;6.32;;
13343;SDS011;6741;48.964;9.406;2023-07-28T02:59:32;7.15;;;6.45;;
13343;SDS011;6741;48.964;9.406;2023-07-28T03:01:58;9.02;;;5.90;;
13343;SDS011;6741;48.964;9.406;2023-07-28T03:04:25;6.40;;;5.90;;
13343;SDS011;6741;48.964;9.406;2023-07-28T03:06:52;6.72;;;5.93;;
13343;SDS011;6741;48.964;9.406;2023-07-28T03:09:19;7.18;;;6.30;;
13343;SDS011;6741;48.964;9.406;2023-07-28T03:11:47;8.02;;;7.28;;
13343;SDS011;6741;48.964;9.406;2023-07-28T03:14:14;6.93;;;6.32;;
13343;SDS011;6741;48.964;9.406;2023-07-28T03:16:42;7.00;;;6.40;;
13343;SDS011;6741;48.964;9.406;2023-07-28T03:19:09;6.30;;;5.80;;
13343;SDS011;6741;48.964;9.406;2023-07-28T03:21:36;7.72;;;6.50;;
13343;SDS011;6741;48.964;9.406;2023-07-28T03:24:03;6.75;;;6.15;;
13343;SDS011;6741;48.964;9.406;2023-07-28T03:26:30;7.47;;;5.80;;
13343;SDS011;6741;48.964;9.406;2023-07-28T03:28:58;6.38;;;5.82;;
13343;SDS011;6741;48.964;9.406;2023-07-28T03:31:25;5.70;;;5.20;;
13343;SDS011;6741;48.964;9.406;2023-07-28T03:33:52;6.35;;;5.78;;
13343;SDS011;6741;48.964;9.406;2023-07-28T03:36:19;5.97;;;5.47;;
13343;SDS011;6741;48.964;9.406;2023-07-28T03:38:46;6.97;;;5.85;;
13343;SDS011;6741;48.964;9.406;2023-07-28T03:41:13;6.70;;;5.53;;
13343;SDS011;6741;48.964;9.406;2023-07-28T03:43:40;6.30;;;5.70;;
13343;SDS011;6741;48.964;9.406;2023-07-28T03:46:08;6.20;;;5.60;;
13343;SDS011;6741;48.964;9.406;2023-07-28T03:48:35;6.00;;;5.50;;
13343;SDS011;6741;48.964;9.406;2023-07-28T03:51:02;5.35;;;4.95;;
13343;SDS011;6741;48.964;9.406;2023-07-28T03:53:29;8.75;;;5.32;;
13343;SDS011;6741;48.964;9.406;2023-07-28T03:55:56;7.40;;;6.28;;
13343;SDS011;6741;48.964;9.406;2023-07-28T03:58:24;5.85;;;5.35;;
13343;SDS011;6741;48.964;9.406;2023-07-28T04:00:51;6.45;;;5.85;;
13343;SDS011;6741;48.964;9.406;2023-07-28T04:03:20;6.15;;;5.65;;
13343;SDS011;6741;48.964;9.406;2023-07-28T04:05:47;11.68;;;6.88;;
13343;SDS011;6741;48.964;9.406;2023-07-28T04:08:13;6.75;;;6.15;;
13343;SDS011;6741;48.964;9.406;2023-07-28T04:10:40;6.85;;;6.25;;
13343;SDS011;6741;48.964;9.406;2023-07-28T04:13:08;7.03;;;6.43;;
13343;SDS011;6741;48.964;9.406;2023-07-28T04:15:34;9.82;;;6.70;;
13343;SDS011;6741;48.964;9.406;2023-07-28T04:18:01;7.35;;;6.63;;
13343;SDS011;6741;48.964;9.406;2023-07-28T04:20:29;6.72;;;6.13;;
13343;SDS011;6741;48.964;9.406;2023-07-28T04:22:56;7.18;;;6.47;;
13343;SDS011;6741;48.964;9.406;2023-07-28T04:25:23;7.65;;;6.45;;
13343;SDS011;6741;48.964;9.406;2023-07-28T04:27:50;8.43;;;6.50;;
13343;SDS011;6741;48.964;9.406;2023-07-28T04:30:17;7.05;;;6.45;;
13343;SDS011;6741;48.964;9.406;2023-07-28T04:32:43;7.70;;;7.00;;
13343;SDS011;6741;48.964;9.406;2023-07-28T04:35:10;6.90;;;6.30;;
13343;SDS011;6741;48.964;9.406;2023-07-28T04:37:38;6.70;;;6.15;;
13343;SDS011;6741;48.964;9.406;2023-07-28T04:40:06;7.40;;;6.53;;
13343;SDS011;6741;48.964;9.406;2023-07-28T04:42:34;6.80;;;6.20;;
13343;SDS011;6741;48.964;9.406;2023-07-28T04:45:01;7.35;;;6.00;;
13343;SDS011;6741;48.964;9.406;2023-07-28T04:47:29;6.88;;;6.28;;
13343;SDS011;6741;48.964;9.406;2023-07-28T04:49:57;6.90;;;6.20;;
13343;SDS011;6741;48.964;9.406;2023-07-28T04:52:25;6.55;;;5.53;;
13343;SDS011;6741;48.964;9.406;2023-07-28T04:54:53;5.82;;;5.38;;
13343;SDS011;6741;48.964;9.406;2023-07-28T04:57:21;6.40;;;5.68;;
13343;SDS011;6741;48.964;9.406;2023-07-28T04:59:49;6.93;;;6.22;;
13343;SDS011;6741;48.964;9.406;2023-07-28T05:02:17;9.48;;;6.20;;
13343;SDS011;6741;48.964;9.406;2023-07-28T05:04:47;7.80;;;6.40;;
13343;SDS011;6741;48.964;9.406;2023-07-28T05:07:15;7.22;;;6.53;;
13343;SDS011;6741;48.964;9.406;2023-07-28T05:09:43;8.02;;;6.45;;
13343;SDS011;6741;48.964;9.406;2023-07-28T05:12:12;7.10;;;6.50;;
13343;SDS011;6741;48.964;9.406;2023-07-28T05:14:40;7.03;;;6.32;;
13343;SDS011;6741;48.964;9.406;2023-07-28T05:17:07;8.27;;;6.35;;
13343;SDS011;6741;48.964;9.406;2023-07-28T05:19:35;6.75;;;5.88;;
13343;SDS011;6741;48.964;9.406;2023-07-28T05:22:03;8.23;;;6.85;;
13343;SDS011;6741;48.964;9.406;2023-07-28T05:24:32;6.55;;;6.03;;
13343;SDS011;6741;48.964;9.406;2023-07-28T05:27:00;7.30;;;6.60;;
13343;SDS011;6741;48.964;9.406;2023-07-28T05:29:29;6.60;;;6.00;;
13343;SDS011;6741;48.964;9.406;2023-07-28T05:31:58;7.40;;;6.70;;
13343;SDS011;6741;48.964;9.406;2023-07-28T05:34:25;8.43;;;7.63;;
13343;SDS011;6741;48.964;9.406;2023-07-28T05:36:52;7.72;;;6.93;;
13343;SDS011;6741;48.964;9.406;2023-07-28T05:39:19;7.30;;;6.53;;
13343;SDS011;6741;48.964;9.406;2023-07-28T05:41:46;10.95;;;7.20;;
13343;SDS011;6741;48.964;9.406;2023-07-28T05:44:13;6.88;;;6.28;;
13343;SDS011;6741;48.964;9.406;2023-07-28T05:46:41;8.07;;;7.43;;
13343;SDS011;6741;48.964;9.406;2023-07-28T05:49:09;7.88;;;7.18;;
13343;SDS011;6741;48.964;9.406;2023-07-28T05:51:36;8.27;;;7.40;;
13343;SDS011;6741;48.964;9.406;2023-07-28T05:54:03;8.00;;;7.30;;
13343;SDS011;6741;48.964;9.406;2023-07-28T05:56:30;8.13;;;7.32;;
13343;SDS011;6741;48.964;9.406;2023-07-28T05:58:57;7.35;;;6.75;;
13343;SDS011;6741;48.964;9.406;2023-07-28T06:01:23;7.88;;;6.97;;
13343;SDS011;6741;48.964;9.406;2023-07-28T06:03:53;7.57;;;6.88;;
13343;SDS011;6741;48.964;9.406;2023-07-28T06:06:24;8.43;;;6.82;;
13343;SDS011;6741;48.964;9.406;2023-07-28T06:08:51;8.85;;;6.80;;
13343;SDS011;6741;48.964;9.406;2023-07-28T06:11:18;9.02;;;7.15;;
13343;SDS011;6741;48.964;9.406;2023-07-28T06:13:46;8.30;;;7.30;;
13343;SDS011;6741;48.964;9.406;2023-07-28T06:16:13;7.68;;;6.97;;
13343;SDS011;6741;48.964;9.406;2023-07-28T06:18:40;7.10;;;6.28;;
13343;SDS011;6741;48.964;9.406;2023-07-28T06:21:09;8.70;;;7.90;;
13343;SDS011;6741;48.964;9.406;2023-07-28T06:23:36;7.88;;;7.07;;
13343;SDS011;6741;48.964;9.406;2023-07-28T06:26:02;8.32;;;6.32;;
13343;SDS011;6741;48.964;9.406;2023-07-28T06:28:29;7.18;;;6.50;;
13343;SDS011;6741;48.964;9.406;2023-07-28T06:30:57;7.60;;;6.90;;
13343;SDS011;6741;48.964;9.406;2023-07-28T06:33:24;7.47;;;6.70;;
13343;SDS011;6741;48.964;9.406;2023-07-28T06:35:51;9.15;;;8.25;;
13343;SDS011;6741;48.964;9.406;2023-07-28T06:38:20;7.85;;;6.93;;
13343;SDS011;6741;48.964;9.406;2023-07-28T06:40:47;8.00;;;6.38;;
13343;SDS011;6741;48.964;9.406;2023-07-28T06:43:14;6.65;;;6.05;;
13343;SDS011;6741;48.964;9.406;2023-07-28T06:45:41;7.05;;;5.88;;
13343;SDS011;6741;48.964;9.406;2023-07-28T06:48:08;7.18;;;5.75;;
13343;SDS011;6741;48.964;9.406;2023-07-28T06:50:34;8.65;;;6.30;;
13343;SDS011;6741;48.964;9.406;2023-07-28T06:53:01;6.72;;;6.00;;
13343;SDS011;6741;48.964;9.406;2023-07-28T06:55:29;6.50;;;5.90;;
13343;SDS011;6741;48.964;9.406;2023-07-28T06:57:56;9.48;;;6.50;;
13343;SDS011;6741;48.964;9.406;2023-07-28T07:00:23;7.22;;;5.90;;
13343;SDS011;6741;48.964;9.406;2023-07-28T07:02:50;7.20;;;5.60;;
13343;SDS011;6741;48.964;9.406;2023-07-28T07:05:17;6.50;;;5.82;;
13343;SDS011;6741;48.964;9.406;2023-07-28T07:07:44;6.07;;;5.55;;
13343;SDS011;6741;48.964;9.406;2023-07-28T07:10:12;6.57;;;5.97;;
13343;SDS011;6741;48.964;9.406;2023-07-28T07:12:40;6.93;;;5.28;;
13343;SDS011;6741;48.964;9.406;2023-07-28T07:15:07;6.57;;;5.97;;
13343;SDS011;6741;48.964;9.406;2023-07-28T07:17:36;7.28;;;5.78;;
13343;SDS011;6741;48.964;9.406;2023-07-28T07:20:05;6.13;;;5.53;;
13343;SDS011;6741;48.964;9.406;2023-07-28T07:22:33;5.35;;;4.85;;
13343;SDS011;6741;48.964;9.406;2023-07-28T07:24:59;5.40;;;5.00;;
13343;SDS011;6741;48.964;9.406;2023-07-28T07:27:29;4.90;;;4.50;;
13343;SDS011;6741;48.964;9.406;2023-07-28T07:29:57;4.47;;;4.05;;
13343;SDS011;6741;48.964;9.406;2023-07-28T07:32:24;5.40;;;4.95;;
13343;SDS011;6741;48.964;9.406;2023-07-28T07:34:51;5.25;;;3.80;;
13343;SDS011;6741;48.964;9.406;2023-07-28T07:37:19;4.07;;;3.72;;
13343;SDS011;6741;48.964;9.406;2023-07-28T07:39:46;3.53;;;3.20;;
13343;SDS011;6741;48.964;9.406;2023-07-28T07:42:13;3.83;;;3.45;;
13343;SDS011;6741;48.964;9.406;2023-07-28T07:44:40;3.78;;;3.47;;
13343;SDS011;6741;48.964;9.406;2023-07-28T07:47:15;3.50;;;3.20;;
13343;SDS011;6741;48.964;9.406;2023-07-28T07:49:42;4.40;;;3.25;;
13343;SDS011;6741;48.964;9.406;2023-07-28T07:52:09;2.95;;;2.67;;
13343;SDS011;6741;48.964;9.406;2023-07-28T07:54:36;3.13;;;2.90;;
13343;SDS011;6741;48.964;9.406;2023-07-28T07:57:03;4.50;;;3.30;;
13343;SDS011;6741;48.964;9.406;2023-07-28T07:59:31;3.42;;;3.13;;
13343;SDS011;6741;48.964;9.406;2023-07-28T08:01:58;3.35;;;2.63;;
13343;SDS011;6741;48.964;9.406;2023-07-28T08:04:29;2.85;;;2.65;;
13343;SDS011;6741;48.964;9.406;2023-07-28T08:06:56;3.03;;;2.75;;
13343;SDS011;6741;48.964;9.406;2023-07-28T08:09:23;3.33;;;2.92;;
13343;SDS011;6741;48.964;9.406;2023-07-28T08:11:50;3.03;;;2.80;;
13343;SDS011;6741;48.964;9.406;2023-07-28T08:14:18;3.00;;;2.80;;
13343;SDS011;6741;48.964;9.406;2023-07-28T08:16:45;2.90;;;2.70;;
13343;SDS011;6741;48.964;9.406;2023-07-28T08:19:12;3.80;;;3.03;;
13343;SDS011;6741;48.964;9.406;2023-07-28T08:21:40;3.42;;;3.13;;
13343;SDS011;6741;48.964;9.406;2023-07-28T08:24:07;3.58;;;3.28;;
13343;SDS011;6741;48.964;9.406;2023-07-28T08:26:34;5.55;;;3.70;;
13343;SDS011;6741;48.964;9.406;2023-07-28T08:29:02;3.20;;;2.90;;
13343;SDS011;6741;48.964;9.406;2023-07-28T08:31:30;2.67;;;2.47;;
13343;SDS011;6741;48.964;9.406;2023-07-28T08:33:58;2.60;;;2.40;;
13343;SDS011;6741;48.964;9.406;2023-07-28T08:36:28;3.03;;;2.67;;
13343;SDS011;6741;48.964;9.406;2023-07-28T08:38:57;2.95;;;2.75;;
13343;SDS011;6741;48.964;9.406;2023-07-28T08:41:25;3.17;;;2.78;;
13343;SDS011;6741;48.964;9.406;2023-07-28T08:43:52;3.30;;;3.00;;
13343;SDS011;6741;48.964;9.406;2023-07-28T08:46:19;3.08;;;2.80;;
13343;SDS011;6741;48.964;9.406;2023-07-28T08:48:46;2.80;;;2.60;;
13343;SDS011;6741;48.964;9.406;2023-07-28T08:51:13;3.58;;;3.28;;
13343;SDS011;6741;48.964;9.406;2023-07-28T08:53:40;3.75;;;2.92;;
13343;SDS011;6741;48.964;9.406;2023-07-28T08:56:08;7.32;;;3.22;;
13343;SDS011;6741;48.964;9.406;2023-07-28T08:58:35;2.60;;;2.40;;
13343;SDS011;6741;48.964;9.406;2023-07-28T09:01:02;2.50;;;2.40;;
13343;SDS011;6741;48.964;9.406;2023-07-28T09:03:30;2.60;;;2.40;;
13343;SDS011;6741;48.964;9.406;2023-07-28T09:05:59;2.97;;;2.17;;
13343;SDS011;6741;48.964;9.406;2023-07-28T09:08:27;2.55;;;2.38;;
13343;SDS011;6741;48.964;9.406;2023-07-28T09:10:54;2.50;;;2.30;;
13343;SDS011;6741;48.964;9.406;2023-07-28T09:13:23;2.75;;;2.50;;
13343;SDS011;6741;48.964;9.406;2023-07-28T09:15:50;2.50;;;2.30;;
13343;SDS011;6741;48.964;9.406;2023-07-28T09:18:17;3.60;;;2.35;;
13343;SDS011;6741;48.964;9.406;2023-07-28T09:20:44;1.85;;;1.75;;
13343;SDS011;6741;48.964;9.406;2023-07-28T09:23:12;2.85;;;2.42;;
13343;SDS011;6741;48.964;9.406;2023-07-28T09:25:40;2.20;;;2.10;;
13343;SDS011;6741;48.964;9.406;2023-07-28T09:28:07;2.50;;;1.90;;
13343;SDS011;6741;48.964;9.406;2023-07-28T09:30:46;1.67;;;1.58;;
13343;SDS011;6741;48.964;9.406;2023-07-28T09:33:20;1.95;;;1.75;;
13343;SDS011;6741;48.964;9.406;2023-07-28T09:35:55;2.20;;;2.00;;
13343;SDS011;6741;48.964;9.406;2023-07-28T09:38:22;1.67;;;1.58;;
13343;SDS011;6741;48.964;9.406;2023-07-28T09:40:53;1.73;;;1.63;;
13343;SDS011;6741;48.964;9.406;2023-07-28T09:43:20;1.80;;;1.70;;
13343;SDS011;6741;48.964;9.406;2023-07-28T09:45:48;1.80;;;1.70;;
13343;SDS011;6741;48.964;9.406;2023-07-28T09:48:15;1.60;;;1.50;;
13343;SDS011;6741;48.964;9.406;2023-07-28T09:50:44;2.33;;;1.88;;
13343;SDS011;6741;48.964;9.406;2023-07-28T09:53:12;1.70;;;1.60;;
13343;SDS011;6741;48.964;9.406;2023-07-28T09:55:40;1.90;;;1.80;;
13343;SDS011;6741;48.964;9.406;2023-07-28T09:58:09;2.55;;;1.95;;
13343;SDS011;6741;48.964;9.406;2023-07-28T10:00:38;2.40;;;1.80;;
13343;SDS011;6741;48.964;9.406;2023-07-28T10:03:06;2.65;;;1.73;;
13343;SDS011;6741;48.964;9.406;2023-07-28T10:05:34;1.58;;;1.48;;
13343;SDS011;6741;48.964;9.406;2023-07-28T10:08:02;1.65;;;1.55;;
13343;SDS011;6741;48.964;9.406;2023-07-28T10:10:30;1.63;;;1.52;;
13343;SDS011;6741;48.964;9.406;2023-07-28T10:12:58;2.92;;;1.83;;
13343;SDS011;6741;48.964;9.406;2023-07-28T10:15:29;1.80;;;1.63;;
13343;SDS011;6741;48.964;9.406;2023-07-28T10:17:56;2.10;;;1.90;;
13343;SDS011;6741;48.964;9.406;2023-07-28T10:20:33;5.55;;;2.03;;
13343;SDS011;6741;48.964;9.406;2023-07-28T10:23:02;1.90;;;1.80;;
13343;SDS011;6741;48.964;9.406;2023-07-28T10:25:32;1.60;;;1.50;;
13343;SDS011;6741;48.964;9.406;2023-07-28T10:28:03;2.10;;;1.50;;
13343;SDS011;6741;48.964;9.406;2023-07-28T10:30:34;1.50;;;1.40;;
13343;SDS011;6741;48.964;9.406;2023-07-28T10:33:05;1.50;;;1.40;;
13343;SDS011;6741;48.964;9.406;2023-07-28T10:35:35;1.52;;;1.42;;
13343;SDS011;6741;48.964;9.406;2023-07-28T10:38:32;1.77;;;1.67;;
13343;SDS011;6741;48.964;9.406;2023-07-28T10:41:09;1.30;;;1.20;;
13343;SDS011;6741;48.964;9.406;2023-07-28T10:43:41;0.95;;;0.95;;
13343;SDS011;6741;48.964;9.406;2023-07-28T10:46:11;0.88;;;0.88;;
13343;SDS011;6741;48.964;9.406;2023-07-28T10:48:41;1.02;;;1.02;;
13343;SDS011;6741;48.964;9.406;2023-07-28T10:51:11;1.42;;;1.30;;
13343;SDS011;6741;48.964;9.406;2023-07-28T10:53:45;1.55;;;0.90;;
13343;SDS011;6741;48.964;9.406;2023-07-28T10:56:15;1.38;;;1.13;;
13343;SDS011;6741;48.964;9.406;2023-07-28T10:58:45;1.35;;;1.25;;
13343;SDS011;6741;48.964;9.406;2023-07-28T11:01:14;1.60;;;1.50;;
13343;SDS011;6741;48.964;9.406;2023-07-28T11:03:41;1.85;;;0.98;;
13343;SDS011;6741;48.964;9.406;2023-07-28T11:06:08;1.77;;;1.40;;
13343;SDS011;6741;48.964;9.406;2023-07-28T11:08:36;2.60;;;1.30;;
13343;SDS011;6741;48.964;9.406;2023-07-28T11:11:04;1.30;;;1.20;;
13343;SDS011;6741;48.964;9.406;2023-07-28T11:13:32;2.05;;;1.63;;
13343;SDS011;6741;48.964;9.406;2023-07-28T11:15:59;1.15;;;1.10;;
13343;SDS011;6741;48.964;9.406;2023-07-28T11:18:27;1.63;;;1.52;;
13343;SDS011;6741;48.964;9.406;2023-07-28T11:20:53;1.30;;;1.20;;
13343;SDS011;6741;48.964;9.406;2023-07-28T11:23:20;1.08;;;1.05;;
13343;SDS011;6741;48.964;9.406;2023-07-28T11:25:49;2.47;;;1.40;;
13343;SDS011;6741;48.964;9.406;2023-07-28T11:28:16;1.67;;;1.25;;
13343;SDS011;6741;48.964;9.406;2023-07-28T11:30:46;1.42;;;1.33;;
13343;SDS011;6741;48.964;9.406;2023-07-28T11:33:15;1.75;;;1.52;;
13343;SDS011;6741;48.964;9.406;2023-07-28T11:35:43;1.45;;;1.20;;
13343;SDS011;6741;48.964;9.406;2023-07-28T11:38:11;2.50;;;1.33;;
13343;SDS011;6741;48.964;9.406;2023-07-28T11:40:40;1.40;;;1.30;;
13343;SDS011;6741;48.964;9.406;2023-07-28T11:43:09;1.38;;;1.27;;
13343;SDS011;6741;48.964;9.406;2023-07-28T11:45:36;1.00;;;1.00;;
13343;SDS011;6741;48.964;9.406;2023-07-28T11:48:03;2.33;;;1.42;;
13343;SDS011;6741;48.964;9.406;2023-07-28T11:50:34;1.77;;;1.48;;
13343;SDS011;6741;48.964;9.406;2023-07-28T11:53:02;1.35;;;1.27;;
13343;SDS011;6741;48.964;9.406;2023-07-28T11:55:29;1.55;;;1.33;;
13343;SDS011;6741;48.964;9.406;2023-07-28T11:57:56;2.00;;;1.27;;
13343;SDS011;6741;48.964;9.406;2023-07-28T12:00:30;1.50;;;1.40;;
13343;SDS011;6741;48.964;9.406;2023-07-28T12:03:03;1.27;;;1.17;;
13343;SDS011;6741;48.964;9.406;2023-07-28T12:05:31;2.00;;;1.33;;
13343;SDS011;6741;48.964;9.406;2023-07-28T12:07:59;1.33;;;1.23;;
13343;SDS011;6741;48.964;9.406;2023-07-28T12:10:27;1.10;;;1.10;;
13343;SDS011;6741;48.964;9.406;2023-07-28T12:12:54;2.00;;;1.08;;
13343;SDS011;6741;48.964;9.406;2023-07-28T12:15:21;1.70;;;1.25;;
13343;SDS011;6741;48.964;9.406;2023-07-28T12:18:06;1.50;;;1.38;;
13343;SDS011;6741;48.964;9.406;2023-07-28T12:20:37;1.30;;;1.20;;
13343;SDS011;6741;48.964;9.406;2023-07-28T12:23:04;1.30;;;1.20;;
13343;SDS011;6741;48.964;9.406;2023-07-28T12:25:32;1.40;;;1.30;;
13343;SDS011;6741;48.964;9.406;2023-07-28T12:27:59;1.42;;;1.33;;
13343;SDS011;6741;48.964;9.406;2023-07-28T12:30:26;1.50;;;1.40;;
13343;SDS011;6741;48.964;9.406;2023-07-28T12:32:53;1.45;;;1.35;;
13343;SDS011;6741;48.964;9.406;2023-07-28T12:35:21;2.47;;;1.50;;
13343;SDS011;6741;48.964;9.406;2023-07-28T12:37:49;1.50;;;1.40;;
13343;SDS011;6741;48.964;9.406;2023-07-28T12:40:17;1.65;;;1.40;;
13343;SDS011;6741;48.964;9.406;2023-07-28T12:42:45;1.60;;;1.50;;
13343;SDS011;6741;48.964;9.406;2023-07-28T12:45:12;1.60;;;1.50;;
13343;SDS011;6741;48.964;9.406;2023-07-28T12:47:39;1.52;;;1.42;;
13343;SDS011;6741;48.964;9.406;2023-07-28T12:50:06;2.15;;;1.95;;
13343;SDS011;6741;48.964;9.406;2023-07-28T12:52:36;2.33;;;2.00;;
13343;SDS011;6741;48.964;9.406;2023-07-28T12:55:04;1.90;;;1.80;;
13343;SDS011;6741;48.964;9.406;2023-07-28T12:57:31;2.50;;;2.30;;
13343;SDS011;6741;48.964;9.406;2023-07-28T12:59:58;3.33;;;2.33;;
13343;SDS011;6741;48.964;9.406;2023-07-28T13:02:25;2.10;;;2.00;;
13343;SDS011;6741;48.964;9.406;2023-07-28T13:04:51;2.30;;;1.80;;
13343;SDS011;6741;48.964;9.406;2023-07-28T13:07:18;2.60;;;2.40;;
13343;SDS011;6741;48.964;9.406;2023-07-28T13:09:48;2.40;;;2.20;;
13343;SDS011;6741;48.964;9.406;2023-07-28T13:12:15;2.45;;;2.25;;
13343;SDS011;6741;48.964;9.406;2023-07-28T13:14:42;2.53;;;2.33;;
13343;SDS011;6741;48.964;9.406;2023-07-28T13:17:09;2.50;;;2.30;;
13343;SDS011;6741;48.964;9.406;2023-07-28T13:19:36;2.58;;;2.33;;
13343;SDS011;6741;48.964;9.406;2023-07-28T13:22:04;3.10;;;2.25;;
13343;SDS011;6741;48.964;9.406;2023-07-28T13:24:31;3.42;;;2.20;;
13343;SDS011;6741;48.964;9.406;2023-07-28T13:26:59;3.15;;;2.38;;
13343;SDS011;6741;48.964;9.406;2023-07-28T13:29:26;2.50;;;2.25;;
13343;SDS011;6741;48.964;9.406;2023-07-28T13:31:57;3.13;;;2.38;;
13343;SDS011;6741;48.964;9.406;2023-07-28T13:34:25;2.72;;;2.47;;
13343;SDS011;6741;48.964;9.406;2023-07-28T13:36:52;2.90;;;2.70;;
13343;SDS011;6741;48.964;9.406;2023-07-28T13:39:19;5.13;;;2.88;;
13343;SDS011;6741;48.964;9.406;2023-07-28T13:41:46;2.90;;;2.70;;
13343;SDS011;6741;48.964;9.406;2023-07-28T13:44:14;2.80;;;2.60;;
13343;SDS011;6741;48.964;9.406;2023-07-28T13:46:41;2.78;;;2.58;;
13343;SDS011;6741;48.964;9.406;2023-07-28T13:49:08;2.60;;;2.40;;
13343;SDS011;6741;48.964;9.406;2023-07-28T13:51:35;3.60;;;2.65;;
13343;SDS011;6741;48.964;9.406;2023-07-28T13:54:02;4.05;;;2.80;;
13343;SDS011;6741;48.964;9.406;2023-07-28T13:56:29;2.88;;;2.58;;
13343;SDS011;6741;48.964;9.406;2023-07-28T13:58:56;3.33;;;3.05;;
13343;SDS011;6741;48.964;9.406;2023-07-28T14:01:25;3.08;;;2.85;;
13343;SDS011;6741;48.964;9.406;2023-07-28T14:03:51;3.58;;;2.60;;
13343;SDS011;6741;48.964;9.406;2023-07-28T14:06:18;2.90;;;2.70;;
13343;SDS011;6741;48.964;9.406;2023-07-28T14:08:45;4.40;;;3.08;;
13343;SDS011;6741;48.964;9.406;2023-07-28T14:11:12;4.95;;;2.97;;
13343;SDS011;6741;48.964;9.406;2023-07-28T14:13:39;4.40;;;3.15;;
13343;SDS011;6741;48.964;9.406;2023-07-28T14:16:06;4.28;;;3.10;;
13343;SDS011;6741;48.964;9.406;2023-07-28T14:18:36;3.53;;;3.20;;
13343;SDS011;6741;48.964;9.406;2023-07-28T14:21:02;3.65;;;3.35;;
13343;SDS011;6741;48.964;9.406;2023-07-28T14:23:29;3.92;;;3.30;;
13343;SDS011;6741;48.964;9.406;2023-07-28T14:25:56;5.25;;;3.80;;
13343;SDS011;6741;48.964;9.406;2023-07-28T14:28:23;5.35;;;3.97;;
13343;SDS011;6741;48.964;9.406;2023-07-28T14:30:50;3.75;;;3.20;;
13343;SDS011;6741;48.964;9.406;2023-07-28T14:33:17;3.65;;;3.17;;
13343;SDS011;6741;48.964;9.406;2023-07-28T14:35:46;4.28;;;3.70;;
13343;SDS011;6741;48.964;9.406;2023-07-28T14:38:14;5.35;;;3.88;;
13343;SDS011;6741;48.964;9.406;2023-07-28T14:40:41;4.30;;;3.78;;
13343;SDS011;6741;48.964;9.406;2023-07-28T14:43:11;4.38;;;3.95;;
13343;SDS011;6741;48.964;9.406;2023-07-28T14:45:38;5.35;;;4.03;;
13343;SDS011;6741;48.964;9.406;2023-07-28T14:48:05;5.82;;;4.10;;
13343;SDS011;6741;48.964;9.406;2023-07-28T14:50:32;4.63;;;4.22;;
13343;SDS011;6741;48.964;9.406;2023-07-28T14:53:00;6.07;;;4.43;;
13343;SDS011;6741;48.964;9.406;2023-07-28T14:55:27;5.47;;;4.40;;
13343;SDS011;6741;48.964;9.406;2023-07-28T14:57:54;5.03;;;4.53;;
13343;SDS011;6741;48.964;9.406;2023-07-28T15:00:21;5.68;;;4.70;;
13343;SDS011;6741;48.964;9.406;2023-07-28T15:02:48;4.50;;;4.10;;
13343;SDS011;6741;48.964;9.406;2023-07-28T15:05:15;5.55;;;4.57;;